Time;durP1;ratioP1;P1;durP2;ratioP2;P2;SDS_P1;SDS_P2;PMS_P1;PMS_P2;Temp;Humidity;BMP_temperature;BMP_pressure;BME280_temperature;BME280_humidity;BME280_pressure;Samples;Min_cycle;Max_cycle;Signal;HPM_P1;HPM_P2
2021/05/20 00:01:20;;;;;;;8.73;7.83;;;;;;;13.09;100.00;99237.23;1784210;79;21085;-69
2021/05/20 00:03:47;;;;;;;9.73;7.70;;;;;;;13.11;100.00;99231.80;1789045;79;21148;-70
2021/05/20 00:06:13;;;;;;;8.87;7.63;;;;;;;13.15;100.00;99242.10;1756080;80;20994;-67
2021/05/20 00:08:40;;;;;;;8.37;6.67;;;;;;;13.21;100.00;99237.77;1754708;80;21065;-67
2021/05/20 00:11:07;;;;;;;8.07;7.27;;;;;;;13.23;100.00;99243.59;1782917;79;20987;-68
2021/05/20 00:13:35;;;;;;;7.70;6.60;;;;;;;13.26;100.00;99245.28;1778898;79;20940;-69
2021/05/20 00:16:01;;;;;;;9.67;6.87;;;;;;;13.27;100.00;99241.64;1787407;79;21636;-68
2021/05/20 00:18:28;;;;;;;9.37;6.80;;;;;;;13.28;100.00;99247.66;1792921;79;22480;-67
2021/05/20 00:20:54;;;;;;;8.87;5.87;;;;;;;13.26;100.00;99251.83;1794161;79;21200;-69
2021/05/20 00:23:21;;;;;;;7.03;6.30;;;;;;;13.28;100.00;99254.20;1725043;82;21017;-70
2021/05/20 00:25:48;;;;;;;7.90;6.37;;;;;;;13.29;100.00;99247.94;1726970;82;20958;-70
2021/05/20 00:28:14;;;;;;;7.50;6.47;;;;;;;13.30;100.00;99254.28;1719216;81;21443;-69
2021/05/20 00:30:41;;;;;;;7.80;6.37;;;;;;;13.32;100.00;99257.97;1724723;82;21307;-68
2021/05/20 00:33:07;;;;;;;6.60;5.80;;;;;;;13.32;100.00;99257.45;1726203;82;20942;-68
2021/05/20 00:35:34;;;;;;;7.70;6.83;;;;;;;13.34;100.00;99258.55;1732465;82;20954;-71
2021/05/20 00:38:01;;;;;;;7.50;6.60;;;;;;;13.35;100.00;99260.14;1716579;82;20953;-69
2021/05/20 00:40:28;;;;;;;7.20;6.30;;;;;;;13.36;100.00;99260.42;1725790;82;21637;-68
2021/05/20 00:42:54;;;;;;;7.77;6.53;;;;;;;13.36;100.00;99269.06;1728789;82;21018;-70
2021/05/20 00:45:24;;;;;;;7.53;6.63;;;;;;;13.37;100.00;99268.06;1727458;82;21526;-68
2021/05/20 00:47:51;;;;;;;8.23;6.83;;;;;;;13.38;100.00;99266.24;1714177;82;21014;-69
2021/05/20 00:50:17;;;;;;;7.20;6.30;;;;;;;13.38;100.00;99264.94;1732285;82;21002;-69
2021/05/20 00:52:44;;;;;;;7.93;6.73;;;;;;;13.38;100.00;99268.34;1723504;82;21377;-70
2021/05/20 00:55:13;;;;;;;8.33;7.40;;;;;;;13.39;100.00;99258.67;1722129;82;21072;-68
2021/05/20 00:57:40;;;;;;;10.73;7.63;;;;;;;13.38;100.00;99265.73;1723640;82;20947;-70
2021/05/20 01:00:10;;;;;;;9.53;7.73;;;;;;;13.39;100.00;99256.05;1693068;83;20953;-69
2021/05/20 01:02:38;;;;;;;8.73;7.47;;;;;;;13.38;100.00;99253.95;1719787;82;21225;-68
2021/05/20 01:05:08;;;;;;;9.23;7.57;;;;;;;13.37;100.00;99252.36;1715998;82;21627;-68
2021/05/20 01:07:36;;;;;;;10.20;7.73;;;;;;;13.37;100.00;99256.28;1721371;82;20864;-69
2021/05/20 01:10:06;;;;;;;11.10;9.23;;;;;;;13.37;100.00;99252.36;1713409;82;20958;-69
2021/05/20 01:12:33;;;;;;;9.13;8.13;;;;;;;13.38;100.00;99261.00;1780096;79;21039;-67
2021/05/20 01:15:00;;;;;;;8.77;7.87;;;;;;;13.38;100.00;99262.31;1766647;79;21020;-71
2021/05/20 01:17:27;;;;;;;8.90;8.00;;;;;;;13.37;100.00;99261.52;1778624;79;21060;-69
2021/05/20 01:19:54;;;;;;;9.53;8.53;;;;;;;13.37;100.00;99260.21;1771370;79;20895;-68
2021/05/20 01:22:20;;;;;;;8.77;7.83;;;;;;;13.38;100.00;99258.39;1735972;79;20942;-65
2021/05/20 01:24:47;;;;;;;9.17;8.27;;;;;;;13.38;100.00;99255.77;1780516;79;22459;-68
2021/05/20 01:27:15;;;;;;;9.60;8.60;;;;;;;13.38;100.00;99253.95;1787269;79;20967;-65
2021/05/20 01:29:43;;;;;;;9.73;8.73;;;;;;;13.37;100.00;99251.05;1776474;79;21078;-67
2021/05/20 01:32:11;;;;;;;9.40;8.50;;;;;;;13.35;100.00;99250.98;1773430;79;21078;-68
2021/05/20 01:34:37;;;;;;;8.30;7.37;;;;;;;13.35;100.00;99249.67;1782739;79;21449;-69
2021/05/20 01:37:07;;;;;;;10.17;9.17;;;;;;;13.36;100.00;99247.33;1784839;79;20883;-68
2021/05/20 01:39:33;;;;;;;9.40;8.40;;;;;;;13.34;100.00;99248.88;1787015;79;21492;-67
2021/05/20 01:42:01;;;;;;;9.33;8.33;;;;;;;13.32;100.00;99254.05;1793475;79;22259;-69
2021/05/20 01:44:27;;;;;;;8.20;6.70;;;;;;;13.31;100.00;99259.00;1789093;78;20950;-69
2021/05/20 01:46:54;;;;;;;7.50;6.67;;;;;;;13.30;100.00;99261.34;1777426;79;21044;-66
2021/05/20 01:49:20;;;;;;;7.60;6.80;;;;;;;13.29;100.00;99260.52;1792888;79;21513;-65
2021/05/20 01:51:47;;;;;;;7.87;7.07;;;;;;;13.30;100.00;99268.67;1763106;79;20966;-67
2021/05/20 01:54:14;;;;;;;7.50;6.50;;;;;;;13.31;100.00;99272.09;1788709;79;21066;-66
2021/05/20 01:56:41;;;;;;;8.73;7.83;;;;;;;13.33;100.00;99268.23;1771772;79;21421;-70
2021/05/20 01:59:08;;;;;;;8.87;7.50;;;;;;;13.36;100.00;99273.51;1775958;79;22029;-67
2021/05/20 02:01:36;;;;;;;8.33;7.53;;;;;;;13.40;100.00;99273.34;1768840;79;20935;-67
2021/05/20 02:04:04;;;;;;;7.03;6.33;;;;;;;13.43;100.00;99274.72;1790330;79;21585;-68
2021/05/20 02:06:31;;;;;;;8.17;7.27;;;;;;;13.47;100.00;99269.31;1782778;79;21143;-67
2021/05/20 02:08:59;;;;;;;8.70;7.80;;;;;;;13.50;100.00;99274.11;1791484;79;21679;-67
2021/05/20 02:11:25;;;;;;;8.10;7.30;;;;;;;13.51;100.00;99274.39;1719340;82;21310;-67
2021/05/20 02:13:53;;;;;;;7.63;6.83;;;;;;;13.53;100.00;99277.08;1719195;81;20895;-69
2021/05/20 02:16:20;;;;;;;7.67;6.73;;;;;;;13.55;100.00;99274.22;1717550;82;20939;-67
2021/05/20 02:18:46;;;;;;;9.97;7.60;;;;;;;13.55;100.00;99268.98;1722259;82;22242;-67
2021/05/20 02:21:13;;;;;;;7.93;7.13;;;;;;;13.55;100.00;99277.63;1728208;82;21084;-68
2021/05/20 02:23:40;;;;;;;8.90;8.00;;;;;;;13.57;100.00;99281.34;1714141;82;20957;-66
2021/05/20 02:26:06;;;;;;;8.43;7.60;;;;;;;13.56;100.00;99283.66;1726893;82;20974;-68
2021/05/20 02:28:33;;;;;;;9.17;8.27;;;;;;;13.55;100.00;99282.07;1723488;81;21514;-68
2021/05/20 02:31:00;;;;;;;9.10;8.17;;;;;;;13.52;100.00;99287.75;1721203;81;21374;-66
2021/05/20 02:33:27;;;;;;;8.53;7.70;;;;;;;13.50;100.00;99283.27;1727813;82;20965;-68
2021/05/20 02:35:53;;;;;;;8.63;7.63;;;;;;;13.48;100.00;99285.30;1729140;82;20930;-69
2021/05/20 02:38:20;;;;;;;9.37;8.47;;;;;;;13.48;100.00;99291.84;1717225;82;21429;-68
2021/05/20 02:40:47;;;;;;;10.77;9.63;;;;;;;13.48;100.00;99289.23;1728358;82;21647;-70
2021/05/20 02:43:13;;;;;;;9.77;8.77;;;;;;;13.47;100.00;99290.27;1734569;82;21045;-69
2021/05/20 02:45:42;;;;;;;7.77;6.97;;;;;;;13.46;100.00;99286.06;1719110;82;20942;-69
2021/05/20 02:48:09;;;;;;;6.87;6.17;;;;;;;13.44;100.00;99286.78;1715032;82;20978;-69
2021/05/20 02:50:35;;;;;;;5.97;5.07;;;;;;;13.41;100.00;99291.15;1721615;82;21005;-71
2021/05/20 02:53:02;;;;;;;5.10;4.30;;;;;;;13.35;100.00;99292.34;1724737;82;21096;-69
2021/05/20 02:55:29;;;;;;;4.37;3.43;;;;;;;13.28;100.00;99299.50;1736531;82;21103;-69
2021/05/20 02:58:02;;;;;;;4.17;3.53;;;;;;;13.21;100.00;99294.83;1737690;82;20926;-71
2021/05/20 03:00:28;;;;;;;4.47;3.47;;;;;;;13.14;100.00;99301.97;1731196;79;21207;-67
2021/05/20 03:02:53;;;;;;;4.30;3.60;;;;;;;13.05;100.00;99296.27;1759105;80;21517;-69
2021/05/20 03:05:20;;;;;;;4.13;3.17;;;;;;;12.99;100.00;99312.05;1754975;80;21086;-70
2021/05/20 03:07:47;;;;;;;4.17;3.33;;;;;;;12.94;100.00;99305.38;1744218;80;21097;-67
2021/05/20 03:10:14;;;;;;;4.97;3.30;;;;;;;12.90;100.00;99305.82;1745209;80;20865;-68
2021/05/20 03:12:40;;;;;;;5.47;3.93;;;;;;;12.86;100.00;99300.75;1743406;80;20978;-68
2021/05/20 03:15:10;;;;;;;5.10;4.00;;;;;;;12.84;100.00;99302.80;1743404;80;20957;-66
2021/05/20 03:17:37;;;;;;;4.97;3.97;;;;;;;12.83;100.00;99302.48;1742590;80;21027;-68
2021/05/20 03:20:05;;;;;;;6.13;4.30;;;;;;;12.84;100.00;99309.34;1744751;80;21577;-69
2021/05/20 03:22:31;;;;;;;5.53;4.10;;;;;;;12.85;100.00;99303.59;1721621;81;21060;-71
2021/05/20 03:24:59;;;;;;;5.90;4.43;;;;;;;12.88;100.00;99308.39;1724944;80;21585;-67
2021/05/20 03:27:25;;;;;;;6.80;3.97;;;;;;;12.89;100.00;99312.59;1703900;81;21586;-68
2021/05/20 03:29:52;;;;;;;5.67;4.10;;;;;;;12.91;100.00;99311.84;1725072;80;20945;-66
2021/05/20 03:32:19;;;;;;;6.00;4.03;;;;;;;12.93;100.00;99307.20;1704611;81;21111;-69
2021/05/20 03:34:45;;;;;;;4.70;3.50;;;;;;;12.94;100.00;99310.61;1726527;80;21031;-72
2021/05/20 03:37:12;;;;;;;4.33;3.30;;;;;;;12.93;100.00;99312.44;1719156;81;21516;-71
2021/05/20 03:39:39;;;;;;;4.97;2.83;;;;;;;12.94;100.00;99315.33;1755273;80;21092;-68
2021/05/20 03:42:06;;;;;;;4.00;2.50;;;;;;;12.96;100.00;99312.00;1746948;80;20941;-71
2021/05/20 03:44:32;;;;;;;4.37;2.70;;;;;;;12.98;100.00;99315.17;1755587;80;21585;-71
2021/05/20 03:46:59;;;;;;;3.60;2.30;;;;;;;13.03;100.00;99314.50;1753659;80;21061;-68
2021/05/20 03:49:26;;;;;;;3.57;2.60;;;;;;;13.09;100.00;99308.39;1753274;80;20977;-67
2021/05/20 03:51:52;;;;;;;3.40;2.40;;;;;;;13.16;100.00;99314.34;1748394;80;20976;-71
2021/05/20 03:54:20;;;;;;;4.07;2.10;;;;;;;13.29;100.00;99318.61;1746468;80;20986;-71
2021/05/20 03:56:46;;;;;;;3.40;2.33;;;;;;;13.42;100.00;99318.94;1755866;80;21087;-71
2021/05/20 03:59:13;;;;;;;5.30;3.20;;;;;;;13.54;100.00;99323.17;1745380;80;21537;-71
2021/05/20 04:01:40;;;;;;;4.10;2.80;;;;;;;13.63;100.00;99324.94;1746291;80;21061;-72
2021/05/20 04:04:08;;;;;;;3.93;2.63;;;;;;;13.69;100.00;99336.35;1744154;80;20952;-71
2021/05/20 04:06:34;;;;;;;4.67;2.83;;;;;;;13.68;100.00;99332.94;1744698;80;20932;-68
2021/05/20 04:09:02;;;;;;;4.00;3.00;;;;;;;13.68;100.00;99335.56;1734102;81;22371;-70
2021/05/20 04:11:30;;;;;;;4.87;3.10;;;;;;;13.67;100.00;99336.56;1748633;80;21080;-70
2021/05/20 04:13:58;;;;;;;3.30;2.47;;;;;;;13.61;100.00;99342.20;1723649;81;21422;-70
2021/05/20 04:16:25;;;;;;;5.00;3.40;;;;;;;13.55;100.00;99343.09;1745612;80;21012;-70
2021/05/20 04:18:53;;;;;;;4.73;3.23;;;;;;;13.53;100.00;99345.66;1728108;81;21010;-73
2021/05/20 04:21:19;;;;;;;4.07;3.17;;;;;;;13.52;100.00;99350.08;1760829;80;21942;-69
2021/05/20 04:23:46;;;;;;;3.30;2.73;;;;;;;13.52;100.00;99363.68;1726102;81;21566;-70
2021/05/20 04:26:18;;;;;;;3.93;2.50;;;;;;;13.51;100.00;99366.02;1750352;80;21000;-71
2021/05/20 04:28:42;;;;;;;5.17;2.80;;;;;;;13.47;100.00;99364.88;1719637;81;21546;-72
2021/05/20 04:31:09;;;;;;;3.73;2.67;;;;;;;13.42;100.00;99371.30;1748980;80;21028;-73
2021/05/20 04:33:35;;;;;;;5.20;2.17;;;;;;;13.35;100.00;99369.56;1722854;81;21122;-70
2021/05/20 04:36:02;;;;;;;3.10;2.03;;;;;;;13.31;100.00;99370.23;1720961;81;21029;-70
2021/05/20 04:38:28;;;;;;;3.03;2.00;;;;;;;13.27;100.00;99372.50;1746507;80;21565;-67
2021/05/20 04:40:55;;;;;;;3.13;1.90;;;;;;;13.23;100.00;99368.73;1720743;81;20963;-69
2021/05/20 04:43:22;;;;;;;3.50;2.33;;;;;;;13.20;100.00;99369.65;1723548;81;20953;-77
2021/05/20 04:45:48;;;;;;;4.40;2.30;;;;;;;13.15;100.00;99382.09;1716314;81;21655;-69
2021/05/20 04:48:15;;;;;;;3.07;2.10;;;;;;;13.09;100.00;99385.58;1725357;81;21288;-68
2021/05/20 04:50:43;;;;;;;4.30;2.10;;;;;;;13.00;100.00;99395.55;1742260;80;20872;-76
2021/05/20 04:53:10;;;;;;;3.50;1.77;;;;;;;12.93;100.00;99394.83;1744592;80;21029;-71
2021/05/20 04:55:36;;;;;;;3.17;2.17;;;;;;;12.87;100.00;99395.70;1739819;80;21265;-69
2021/05/20 04:58:03;;;;;;;3.13;1.93;;;;;;;12.84;100.00;99400.05;1728395;81;21091;-69
2021/05/20 05:00:30;;;;;;;3.00;1.90;;;;;;;12.82;100.00;99398.97;1721140;81;20973;-71
2021/05/20 05:02:56;;;;;;;3.30;2.20;;;;;;;12.81;100.00;99392.16;1753852;80;21410;-72
2021/05/20 05:05:24;;;;;;;4.30;2.20;;;;;;;12.82;100.00;99400.28;1752911;79;20974;-70
2021/05/20 05:07:51;;;;;;;3.60;2.10;;;;;;;12.83;100.00;99401.88;1772881;79;22038;-71
2021/05/20 05:10:18;;;;;;;4.60;2.83;;;;;;;12.88;100.00;99403.34;1752629;80;21060;-72
2021/05/20 05:12:44;;;;;;;7.87;2.43;;;;;;;12.97;100.00;99400.42;1759790;80;20940;-72
2021/05/20 05:15:13;;;;;;;3.60;2.40;;;;;;;13.07;100.00;99400.72;1754313;79;20997;-70
2021/05/20 05:17:40;;;;;;;4.87;2.60;;;;;;;13.22;100.00;99402.92;1760508;79;21048;-69
2021/05/20 05:20:07;;;;;;;3.73;2.20;;;;;;;13.33;100.00;99393.87;1757640;80;20910;-70
2021/05/20 05:22:34;;;;;;;3.50;2.30;;;;;;;13.45;100.00;99400.45;1732197;81;21998;-75
2021/05/20 05:25:01;;;;;;;2.90;2.00;;;;;;;13.52;100.00;99392.48;1755496;80;20945;-73
2021/05/20 05:27:28;;;;;;;3.47;2.03;;;;;;;13.59;100.00;99399.22;1750180;80;21064;-72
2021/05/20 05:29:55;;;;;;;3.07;1.50;;;;;;;13.67;100.00;99398.10;1756911;80;22381;-70
2021/05/20 05:32:23;;;;;;;5.53;1.90;;;;;;;13.76;100.00;99408.56;1751663;80;21590;-77
2021/05/20 05:34:50;;;;;;;5.50;2.13;;;;;;;13.85;100.00;99404.58;1754115;80;21100;-71
2021/05/20 05:37:17;;;;;;;4.17;1.97;;;;;;;13.96;100.00;99404.32;1752266;80;20972;-73
2021/05/20 05:39:44;;;;;;;4.03;1.70;;;;;;;14.09;100.00;99411.16;1753519;80;20899;-70
2021/05/20 05:42:11;;;;;;;3.20;2.00;;;;;;;14.19;100.00;99411.41;1752056;80;21557;-72
2021/05/20 05:44:38;;;;;;;4.67;2.30;;;;;;;14.27;100.00;99415.52;1753277;80;20960;-76
2021/05/20 05:47:07;;;;;;;3.47;1.90;;;;;;;14.31;100.00;99418.76;1747373;80;21103;-73
2021/05/20 05:49:41;;;;;;;5.27;1.90;;;;;;;14.24;100.00;99419.38;1734418;80;21042;-71
2021/05/20 05:52:07;;;;;;;4.73;2.50;;;;;;;14.11;100.00;99419.61;1739234;80;20935;-73
2021/05/20 05:54:32;;;;;;;3.80;2.00;;;;;;;13.96;100.00;99431.04;1729251;80;21308;-73
2021/05/20 05:56:59;;;;;;;3.57;1.70;;;;;;;13.84;100.00;99432.33;1732976;80;20998;-72
2021/05/20 05:59:25;;;;;;;3.43;1.60;;;;;;;13.79;100.00;99440.86;1732702;80;21104;-74
2021/05/20 06:01:52;;;;;;;4.83;2.20;;;;;;;13.75;100.00;99434.48;1747908;80;21334;-71
2021/05/20 06:04:19;;;;;;;3.80;1.87;;;;;;;13.70;100.00;99439.56;1740768;80;21031;-72
2021/05/20 06:06:47;;;;;;;3.53;1.57;;;;;;;13.68;100.00;99445.55;1747024;80;21100;-72
2021/05/20 06:09:13;;;;;;;3.63;2.00;;;;;;;13.66;100.00;99438.93;1753209;80;21460;-70
2021/05/20 06:11:43;;;;;;;4.37;2.43;;;;;;;13.60;100.00;99438.81;1759179;80;21092;-73
2021/05/20 06:14:11;;;;;;;3.50;2.07;;;;;;;13.56;100.00;99449.44;1735102;81;21034;-72
2021/05/20 06:16:43;;;;;;;2.60;1.60;;;;;;;13.55;100.00;99448.34;1754437;80;21694;-72
2021/05/20 06:19:10;;;;;;;4.40;2.27;;;;;;;13.57;100.00;99451.55;1728432;81;21567;-71
2021/05/20 06:21:38;;;;;;;3.67;1.90;;;;;;;13.78;100.00;99451.55;1753833;80;21917;-72
2021/05/20 06:24:06;;;;;;;3.10;1.53;;;;;;;14.23;100.00;99458.94;1724481;81;21137;-71
2021/05/20 06:26:33;;;;;;;4.00;1.87;;;;;;;14.63;100.00;99455.18;1729659;80;21561;-71
2021/05/20 06:28:59;;;;;;;3.50;1.80;;;;;;;14.86;100.00;99454.88;1721818;81;21049;-72
2021/05/20 06:31:28;;;;;;;2.93;1.13;;;;;;;14.97;100.00;99458.00;1726890;81;21647;-72
2021/05/20 06:33:55;;;;;;;2.07;1.10;;;;;;;15.10;100.00;99447.23;1756118;80;21907;-71
2021/05/20 06:36:24;;;;;;;2.50;1.30;;;;;;;15.24;100.00;99451.19;1767803;79;21320;-69
2021/05/20 06:38:51;;;;;;;3.07;1.00;;;;;;;15.41;100.00;99460.42;1756531;79;21100;-70
2021/05/20 06:41:19;;;;;;;1.60;0.70;;;;;;;15.57;100.00;99462.33;1710964;81;21528;-69
2021/05/20 06:43:46;;;;;;;1.60;0.80;;;;;;;15.76;100.00;99457.70;1722095;81;21130;-72
2021/05/20 06:46:12;;;;;;;1.40;0.70;;;;;;;15.96;100.00;99459.08;1720801;81;21114;-73
2021/05/20 06:48:39;;;;;;;1.40;0.80;;;;;;;16.17;100.00;99459.67;1720833;82;21081;-76
2021/05/20 06:51:05;;;;;;;1.57;0.90;;;;;;;16.40;100.00;99465.80;1758216;80;20987;-72
2021/05/20 06:53:35;;;;;;;1.43;0.70;;;;;;;16.59;100.00;99461.08;1758612;79;21061;-69
2021/05/20 06:56:04;;;;;;;2.80;1.10;;;;;;;16.84;100.00;99450.94;1744978;80;21401;-71
2021/05/20 07:01:15;;;;;;;1.63;0.70;;;;;;;17.50;100.00;99465.39;1751226;80;21570;-71
2021/05/20 07:03:43;;;;;;;2.10;0.90;;;;;;;17.75;100.00;99460.41;1743717;80;21623;-69
2021/05/20 07:06:11;;;;;;;1.77;1.00;;;;;;;17.74;100.00;99471.98;1746640;80;20881;-74
2021/05/20 07:08:41;;;;;;;2.90;0.83;;;;;;;17.71;100.00;99475.11;1744202;80;21085;-68
2021/05/20 07:11:08;;;;;;;1.53;0.80;;;;;;;18.00;100.00;99464.34;1741950;80;21010;-70
2021/05/20 07:13:36;;;;;;;1.57;0.90;;;;;;;18.34;100.00;99460.91;1745488;80;21570;-71
2021/05/20 07:16:04;;;;;;;2.33;1.13;;;;;;;18.42;100.00;99469.67;1743966;80;21507;-73
2021/05/20 07:18:30;;;;;;;3.27;1.13;;;;;;;18.48;100.00;99469.95;1744572;80;21004;-70
2021/05/20 07:20:58;;;;;;;2.33;1.03;;;;;;;18.67;100.00;99466.91;1741160;80;21555;-70
2021/05/20 07:23:25;;;;;;;2.73;1.00;;;;;;;19.01;100.00;99467.91;1743322;80;21542;-70
2021/05/20 07:25:52;;;;;;;1.40;0.80;;;;;;;19.52;100.00;99476.81;1742131;80;21459;-69
2021/05/20 07:28:20;;;;;;;2.27;1.17;;;;;;;20.03;100.00;99470.83;1743477;80;21035;-71
2021/05/20 07:30:46;;;;;;;1.40;0.60;;;;;;;20.24;100.00;99471.62;1743111;80;20992;-70
2021/05/20 07:33:13;;;;;;;1.97;1.00;;;;;;;20.21;100.00;99480.09;1742790;80;21671;-71
2021/05/20 07:35:40;;;;;;;1.90;0.80;;;;;;;20.08;100.00;99483.54;1742524;80;21493;-73
2021/05/20 07:38:07;;;;;;;2.03;1.20;;;;;;;19.96;100.00;99482.98;1743911;80;22035;-70
2021/05/20 07:40:34;;;;;;;1.50;0.90;;;;;;;19.90;100.00;99482.73;1724594;81;21135;-71
2021/05/20 07:43:00;;;;;;;2.17;1.20;;;;;;;19.80;100.00;99485.36;1747659;80;21578;-70
2021/05/20 07:45:27;;;;;;;2.70;1.53;;;;;;;20.00;100.00;99489.87;1744679;80;21005;-68
2021/05/20 07:47:53;;;;;;;2.30;1.10;;;;;;;20.55;100.00;99484.33;1720750;81;21475;-70
2021/05/20 07:50:21;;;;;;;2.80;1.17;;;;;;;21.17;100.00;99491.56;1725224;81;22102;-69
2021/05/20 07:52:48;;;;;;;4.93;1.97;;;;;;;21.69;100.00;99495.04;1728107;81;21088;-69
2021/05/20 07:55:15;;;;;;;3.00;1.60;;;;;;;22.07;100.00;99497.97;1743561;80;20995;-70
2021/05/20 07:57:41;;;;;;;2.83;1.00;;;;;;;22.50;100.00;99498.97;1720941;81;21439;-70
2021/05/20 08:00:09;;;;;;;1.30;0.90;;;;;;;23.01;100.00;99507.75;1743393;80;21046;-71
2021/05/20 08:06:03;;;;;;;1.37;0.90;;;;;;;23.59;100.00;99515.28;1745391;80;20211;-70
2021/05/20 08:07:54;;;;;;;1.40;1.00;;;;;;;23.26;98.06;99513.83;1698483;81;21688;-68
2021/05/20 08:12:44;;;;;;;2.33;1.10;;;;;;;22.80;100.00;99522.30;1743824;80;21350;-69
2021/05/20 08:15:12;;;;;;;1.40;1.00;;;;;;;23.06;100.00;99518.86;1723191;81;21020;-70
2021/05/20 08:17:39;;;;;;;1.77;1.00;;;;;;;23.35;100.00;99527.31;1750823;80;21899;-69
2021/05/20 08:20:07;;;;;;;1.37;1.00;;;;;;;23.27;100.00;99528.19;1744933;80;21382;-72
2021/05/20 08:22:35;;;;;;;1.93;1.20;;;;;;;22.88;100.00;99533.66;1743017;80;21103;-69
2021/05/20 08:25:03;;;;;;;2.13;1.10;;;;;;;22.39;100.00;99538.64;1732061;81;20894;-67
2021/05/20 08:27:30;;;;;;;3.33;1.53;;;;;;;21.98;100.00;99542.89;1744330;80;21580;-68
2021/05/20 08:29:57;;;;;;;16.40;10.47;;;;;;;21.62;100.00;99548.38;1721022;81;21646;-71
2021/05/20 08:32:23;;;;;;;10.80;5.43;;;;;;;21.46;100.00;99544.23;1744964;80;21509;-74
2021/05/20 08:34:50;;;;;;;2.03;1.30;;;;;;;21.24;100.00;99533.94;1718844;81;21097;-72
2021/05/20 08:37:17;;;;;;;2.10;1.27;;;;;;;21.02;100.00;99534.80;1745958;80;21000;-71
2021/05/20 08:39:44;;;;;;;2.10;1.17;;;;;;;20.85;100.00;99537.23;1722103;81;21405;-70
2021/05/20 08:42:10;;;;;;;1.73;1.20;;;;;;;20.74;100.00;99537.52;1744074;80;21024;-71
2021/05/20 08:44:37;;;;;;;2.07;1.03;;;;;;;20.83;100.00;99535.91;1721791;81;21104;-67
2021/05/20 08:47:03;;;;;;;1.90;0.80;;;;;;;21.16;100.00;99543.78;1745338;80;21187;-68
2021/05/20 08:49:31;;;;;;;2.90;1.13;;;;;;;21.41;100.00;99542.14;1721633;81;21044;-67
2021/05/20 08:51:59;;;;;;;1.80;1.13;;;;;;;21.54;100.00;99544.19;1744152;80;21549;-74
2021/05/20 08:54:26;;;;;;;3.43;1.20;;;;;;;21.74;100.00;99552.57;1721923;81;21296;-68
2021/05/20 08:56:55;;;;;;;2.60;1.40;;;;;;;21.90;100.00;99555.41;1725960;82;21058;-71
2021/05/20 08:59:22;;;;;;;4.13;1.30;;;;;;;21.95;100.00;99554.59;1725610;81;21104;-70
2021/05/20 09:01:51;;;;;;;3.13;1.20;;;;;;;21.93;100.00;99556.17;1744473;80;20988;-71
2021/05/20 09:04:18;;;;;;;2.57;0.90;;;;;;;22.13;100.00;99547.30;1755156;80;21085;-70
2021/05/20 09:06:49;;;;;;;1.97;1.00;;;;;;;22.22;100.00;99548.85;1751891;80;21143;-69
2021/05/20 09:09:23;;;;;;;2.43;1.00;;;;;;;22.02;100.00;99547.11;1759403;80;21013;-69
2021/05/20 09:11:49;;;;;;;3.23;0.93;;;;;;;21.87;100.00;99553.30;1758262;80;21924;-68
2021/05/20 09:14:34;;;;;;;2.98;1.10;;;;;;;21.99;100.00;99551.09;1750541;80;21479;-68
2021/05/20 09:17:12;;;;;;;2.57;1.23;;;;;;;22.36;100.00;99542.38;1752124;80;20992;-69
2021/05/20 09:19:42;;;;;;;2.37;0.97;;;;;;;22.88;100.00;99536.83;1750258;80;21132;-71
2021/05/20 09:22:12;;;;;;;2.60;1.00;;;;;;;23.14;100.00;99545.36;1754720;80;21438;-72
2021/05/20 09:24:53;;;;;;;3.23;1.53;;;;;;;23.49;100.00;99534.84;1750043;80;21011;-70
2021/05/20 09:27:31;;;;;;;4.12;1.05;;;;;;;23.85;100.00;99545.81;1752217;80;27269;-73
2021/05/20 09:30:25;;;;;;;2.50;0.97;;;;;;;24.25;98.70;99536.42;1754164;80;21101;-70
2021/05/20 09:32:59;;;;;;;2.37;1.20;;;;;;;24.59;94.18;99541.23;1752762;80;21146;-68
2021/05/20 09:35:43;;;;;;;3.80;1.13;;;;;;;24.64;86.00;99535.27;1753699;80;20992;-73
2021/05/20 09:38:17;;;;;;;2.97;1.27;;;;;;;24.35;84.49;99546.11;1755512;80;21020;-73
2021/05/20 09:40:51;;;;;;;2.00;1.10;;;;;;;23.81;87.50;99535.49;1752197;80;21687;-71
2021/05/20 09:43:31;;;;;;;3.57;1.40;;;;;;;23.59;88.39;99538.69;1756649;80;21955;-72
2021/05/20 09:46:02;;;;;;;3.60;1.30;;;;;;;23.60;95.73;99540.29;1747894;80;21047;-72
2021/05/20 09:48:37;;;;;;;3.67;1.20;;;;;;;23.86;96.03;99535.95;1755245;80;20983;-71
2021/05/20 09:51:07;;;;;;;2.60;1.40;;;;;;;24.00;93.52;99542.92;1753005;80;21585;-70
2021/05/20 09:53:45;;;;;;;2.03;1.30;;;;;;;24.09;91.11;99533.73;1727860;80;21581;-71
2021/05/20 09:56:12;;;;;;;5.43;1.60;;;;;;;24.15;87.35;99533.12;1753530;80;21394;-68
2021/05/20 09:58:39;;;;;;;3.13;1.40;;;;;;;24.00;83.80;99548.25;1720237;81;20960;-68
2021/05/20 10:01:11;;;;;;;3.40;1.53;;;;;;;23.64;89.93;99551.13;1753494;80;20876;-66
2021/05/20 10:03:39;;;;;;;3.53;1.60;;;;;;;23.50;94.60;99546.52;1754517;80;21504;-72
2021/05/20 10:06:06;;;;;;;3.20;1.30;;;;;;;23.38;94.85;99556.78;1711892;82;21019;-69
2021/05/20 10:08:35;;;;;;;3.43;1.50;;;;;;;23.15;100.00;99557.05;1756446;80;21265;-68
2021/05/20 10:11:03;;;;;;;3.60;1.70;;;;;;;23.05;100.00;99564.59;1752629;80;21105;-68
2021/05/20 10:13:31;;;;;;;3.20;1.47;;;;;;;23.09;100.00;99562.16;1755295;80;21019;-71
2021/05/20 10:15:58;;;;;;;2.73;1.37;;;;;;;23.21;100.00;99553.25;1753153;80;21930;-71
2021/05/20 10:18:28;;;;;;;2.13;1.33;;;;;;;23.43;99.06;99557.26;1755371;80;21046;-68
2021/05/20 10:20:58;;;;;;;3.45;1.70;;;;;;;23.75;98.79;99553.92;1751580;80;21042;-70
2021/05/20 10:23:25;;;;;;;2.23;1.10;;;;;;;24.10;90.29;99562.51;1754055;80;21569;-71
2021/05/20 10:25:54;;;;;;;2.07;1.30;;;;;;;24.19;91.55;99559.42;1751608;80;21889;-70
2021/05/20 10:28:22;;;;;;;2.60;1.47;;;;;;;24.14;93.64;99566.95;1729248;80;22120;-68
2021/05/20 10:30:53;;;;;;;2.20;1.30;;;;;;;24.19;98.45;99568.74;1753430;80;21549;-70
2021/05/20 10:33:28;;;;;;;2.77;1.20;;;;;;;24.33;93.47;99568.81;1754852;80;21097;-71
2021/05/20 10:36:00;;;;;;;3.63;1.30;;;;;;;24.56;94.04;99568.46;1753323;80;21506;-70
2021/05/20 10:38:35;;;;;;;1.77;1.30;;;;;;;24.87;88.88;99558.83;1755669;80;21004;-70
2021/05/20 10:41:23;;;;;;;4.10;1.67;;;;;;;24.97;82.73;99563.98;1752477;80;21036;-72
2021/05/20 10:44:06;;;;;;;2.90;1.50;;;;;;;24.74;80.63;99555.08;1745925;80;21123;-68
2021/05/20 10:47:05;;;;;;;2.40;1.40;;;;;;;24.38;86.90;99573.50;1753126;80;21176;-70
2021/05/20 10:49:51;;;;;;;5.97;1.63;;;;;;;24.27;88.15;99575.53;1754638;80;21023;-72
2021/05/20 10:52:42;;;;;;;2.63;1.50;;;;;;;24.25;94.89;99580.38;1745300;80;20976;-72
2021/05/20 10:55:12;;;;;;;2.47;1.20;;;;;;;24.45;91.87;99571.28;1746576;80;21537;-73
2021/05/20 10:57:56;;;;;;;2.57;1.70;;;;;;;24.81;86.49;99573.87;1744717;81;21568;-68
2021/05/20 11:00:42;;;;;;;2.83;1.40;;;;;;;25.14;82.20;99571.97;1754935;80;21368;-68
2021/05/20 11:03:09;;;;;;;2.77;1.30;;;;;;;25.31;78.54;99573.51;1750718;81;20952;-69
2021/05/20 11:05:48;;;;;;;1.60;1.17;;;;;;;25.06;71.25;99577.97;1755700;80;22409;-70
2021/05/20 11:08:34;;;;;;;4.07;1.70;;;;;;;24.71;71.93;99569.53;1749156;80;21091;-69
2021/05/20 11:11:03;;;;;;;3.33;1.57;;;;;;;24.32;72.32;99584.52;1762720;80;21088;-71
2021/05/20 11:13:38;;;;;;;5.47;1.60;;;;;;;23.81;79.02;99568.76;1750443;80;21037;-69
2021/05/20 11:16:19;;;;;;;4.93;1.53;;;;;;;23.67;86.75;99582.52;1757441;80;21393;-72
2021/05/20 11:18:52;;;;;;;3.22;1.70;;;;;;;23.94;82.48;99579.22;1744716;80;21884;-72
2021/05/20 11:21:17;;;;;;;5.63;2.27;;;;;;;24.00;77.81;99574.87;1762544;80;21577;-72
2021/05/20 11:23:44;;;;;;;2.67;1.30;;;;;;;23.86;79.25;99581.98;1750672;80;21101;-73
2021/05/20 11:26:19;;;;;;;2.70;1.40;;;;;;;23.71;81.64;99578.98;1766177;80;21126;-69
2021/05/20 11:28:53;;;;;;;3.00;1.60;;;;;;;23.50;82.79;99581.64;1752235;80;20960;-72
2021/05/20 11:31:22;;;;;;;2.80;1.50;;;;;;;23.18;86.66;99584.92;1754327;80;21015;-71
2021/05/20 11:34:04;;;;;;;3.40;1.67;;;;;;;22.91;87.90;99586.77;1750512;80;21095;-68
2021/05/20 11:36:41;;;;;;;4.40;1.67;;;;;;;22.71;93.22;99585.10;1750038;80;21006;-69
2021/05/20 11:39:14;;;;;;;4.53;2.20;;;;;;;22.67;97.12;99576.11;1733903;80;21561;-70
2021/05/20 11:41:43;;;;;;;3.10;1.50;;;;;;;22.81;100.00;99577.05;1730486;80;21985;-71